< < Back
Terminal Aerodrome Forecast


Current Version              Previous Versions:   1  2  3  4  5  6  7  8  9  

Terminal Aerodrome Forecast

835
FTUS42 KILM 241100
TAFFLO
TAF
KFLO 241120Z 2412/2512 17010KT 3SM SHRA SCT006 OVC020
     FM241400 17009KT 3SM -RA BR OVC005
     FM242100 19011G18KT 1SM -RA BR OVC003
     FM250200 23014KT 4SM BR OVC015=



Latest METAR

071
SAUS70 KWBC 250100 RRD
MTRFLO
METAR KFLO 250053Z AUTO 21009KT 10SM FEW025 19/17 A2973 RMK AO2 RAB15E26
SLP064 P0000 T01890172


USA.gov is the U.S. government's official web portal to all federal, state and local government web resources and services.